sensor_id;sensor_type;location;lat;lon;timestamp;temperature;humidity
25482;DHT22;13395;50.752;4.268;2023-05-28T00:02:03;13.40;99.90
25482;DHT22;13395;50.752;4.268;2023-05-28T00:04:29;13.40;99.90
25482;DHT22;13395;50.752;4.268;2023-05-28T00:06:54;13.40;99.90
25482;DHT22;13395;50.752;4.268;2023-05-28T00:09:21;13.40;99.90
25482;DHT22;13395;50.752;4.268;2023-05-28T00:11:47;13.50;99.90
25482;DHT22;13395;50.752;4.268;2023-05-28T00:14:13;13.50;99.90
25482;DHT22;13395;50.752;4.268;2023-05-28T00:16:38;13.50;99.90
25482;DHT22;13395;50.752;4.268;2023-05-28T00:19:06;13.50;99.90
25482;DHT22;13395;50.752;4.268;2023-05-28T00:21:31;13.40;99.90
25482;DHT22;13395;50.752;4.268;2023-05-28T00:24:02;13.40;99.90
25482;DHT22;13395;50.752;4.268;2023-05-28T00:26:28;13.40;99.90
25482;DHT22;13395;50.752;4.268;2023-05-28T00:28:53;13.30;99.90
25482;DHT22;13395;50.752;4.268;2023-05-28T00:31:19;13.20;99.90
25482;DHT22;13395;50.752;4.268;2023-05-28T00:33:44;13.10;99.90
25482;DHT22;13395;50.752;4.268;2023-05-28T00:36:13;13.00;99.90
25482;DHT22;13395;50.752;4.268;2023-05-28T00:38:39;13.10;99.90
25482;DHT22;13395;50.752;4.268;2023-05-28T00:41:05;13.10;99.90
25482;DHT22;13395;50.752;4.268;2023-05-28T00:43:30;13.00;99.90
25482;DHT22;13395;50.752;4.268;2023-05-28T00:46:00;12.90;99.90
25482;DHT22;13395;50.752;4.268;2023-05-28T00:48:27;12.90;99.90
25482;DHT22;13395;50.752;4.268;2023-05-28T00:50:53;13.00;99.90
25482;DHT22;13395;50.752;4.268;2023-05-28T00:53:19;12.90;99.90
25482;DHT22;13395;50.752;4.268;2023-05-28T00:55:44;12.90;99.90
25482;DHT22;13395;50.752;4.268;2023-05-28T00:58:10;12.90;99.90
25482;DHT22;13395;50.752;4.268;2023-05-28T01:00:36;12.90;99.90
25482;DHT22;13395;50.752;4.268;2023-05-28T01:03:03;13.00;99.90
25482;DHT22;13395;50.752;4.268;2023-05-28T01:05:29;13.00;99.90
25482;DHT22;13395;50.752;4.268;2023-05-28T01:08:00;13.00;99.90
25482;DHT22;13395;50.752;4.268;2023-05-28T01:10:27;13.00;99.90
25482;DHT22;13395;50.752;4.268;2023-05-28T01:12:53;12.90;99.90
25482;DHT22;13395;50.752;4.268;2023-05-28T01:15:19;12.90;99.90
25482;DHT22;13395;50.752;4.268;2023-05-28T01:17:45;12.90;99.90
25482;DHT22;13395;50.752;4.268;2023-05-28T01:20:11;12.90;99.90
25482;DHT22;13395;50.752;4.268;2023-05-28T01:22:38;12.80;99.90
25482;DHT22;13395;50.752;4.268;2023-05-28T01:25:04;12.80;99.90
25482;DHT22;13395;50.752;4.268;2023-05-28T01:27:38;12.70;99.90
25482;DHT22;13395;50.752;4.268;2023-05-28T01:30:04;12.80;99.90
25482;DHT22;13395;50.752;4.268;2023-05-28T01:32:32;12.70;99.90
25482;DHT22;13395;50.752;4.268;2023-05-28T01:34:58;12.70;99.90
25482;DHT22;13395;50.752;4.268;2023-05-28T01:37:24;12.70;99.90
25482;DHT22;13395;50.752;4.268;2023-05-28T01:39:50;12.60;99.90
25482;DHT22;13395;50.752;4.268;2023-05-28T01:42:16;12.50;99.90
25482;DHT22;13395;50.752;4.268;2023-05-28T01:44:42;12.40;99.90
25482;DHT22;13395;50.752;4.268;2023-05-28T01:47:07;12.40;99.90
25482;DHT22;13395;50.752;4.268;2023-05-28T01:49:33;12.40;99.90
25482;DHT22;13395;50.752;4.268;2023-05-28T01:52:01;12.40;99.90
25482;DHT22;13395;50.752;4.268;2023-05-28T01:54:27;12.40;99.90
25482;DHT22;13395;50.752;4.268;2023-05-28T01:56:53;12.60;99.90
25482;DHT22;13395;50.752;4.268;2023-05-28T01:59:18;12.40;99.90
25482;DHT22;13395;50.752;4.268;2023-05-28T02:01:44;12.30;99.90
25482;DHT22;13395;50.752;4.268;2023-05-28T02:04:09;12.10;99.90
25482;DHT22;13395;50.752;4.268;2023-05-28T02:06:35;12.10;99.90
25482;DHT22;13395;50.752;4.268;2023-05-28T02:09:01;12.10;99.90
25482;DHT22;13395;50.752;4.268;2023-05-28T02:11:26;12.10;99.90
25482;DHT22;13395;50.752;4.268;2023-05-28T02:13:52;12.10;99.90
25482;DHT22;13395;50.752;4.268;2023-05-28T02:16:18;12.00;99.90
25482;DHT22;13395;50.752;4.268;2023-05-28T02:18:44;12.10;99.90
25482;DHT22;13395;50.752;4.268;2023-05-28T02:21:10;12.00;99.90
25482;DHT22;13395;50.752;4.268;2023-05-28T02:23:37;11.80;99.90
25482;DHT22;13395;50.752;4.268;2023-05-28T02:26:02;11.70;99.90
25482;DHT22;13395;50.752;4.268;2023-05-28T02:28:28;11.50;99.90
25482;DHT22;13395;50.752;4.268;2023-05-28T02:30:53;11.60;99.90
25482;DHT22;13395;50.752;4.268;2023-05-28T02:33:19;11.70;99.90
25482;DHT22;13395;50.752;4.268;2023-05-28T02:35:44;11.80;99.90
25482;DHT22;13395;50.752;4.268;2023-05-28T02:38:10;11.80;99.90
25482;DHT22;13395;50.752;4.268;2023-05-28T02:40:35;11.80;99.90
25482;DHT22;13395;50.752;4.268;2023-05-28T02:43:01;11.70;99.90
25482;DHT22;13395;50.752;4.268;2023-05-28T02:45:26;11.70;99.90
25482;DHT22;13395;50.752;4.268;2023-05-28T02:47:52;11.60;99.90
25482;DHT22;13395;50.752;4.268;2023-05-28T02:50:17;11.40;99.90
25482;DHT22;13395;50.752;4.268;2023-05-28T02:52:43;11.50;99.90
25482;DHT22;13395;50.752;4.268;2023-05-28T02:55:08;11.30;99.90
25482;DHT22;13395;50.752;4.268;2023-05-28T02:57:34;11.40;99.90
25482;DHT22;13395;50.752;4.268;2023-05-28T03:00:00;11.40;99.90
25482;DHT22;13395;50.752;4.268;2023-05-28T03:02:26;11.40;99.90
25482;DHT22;13395;50.752;4.268;2023-05-28T03:04:51;11.50;99.90
25482;DHT22;13395;50.752;4.268;2023-05-28T03:07:18;11.40;99.90
25482;DHT22;13395;50.752;4.268;2023-05-28T03:09:43;11.30;99.90
25482;DHT22;13395;50.752;4.268;2023-05-28T03:12:09;11.20;99.90
25482;DHT22;13395;50.752;4.268;2023-05-28T03:14:35;11.10;99.90
25482;DHT22;13395;50.752;4.268;2023-05-28T03:17:01;11.20;99.90
25482;DHT22;13395;50.752;4.268;2023-05-28T03:19:26;11.30;99.90
25482;DHT22;13395;50.752;4.268;2023-05-28T03:21:52;11.30;99.90
25482;DHT22;13395;50.752;4.268;2023-05-28T03:24:17;11.30;99.90
25482;DHT22;13395;50.752;4.268;2023-05-28T03:26:43;11.40;99.90
25482;DHT22;13395;50.752;4.268;2023-05-28T03:29:09;11.30;99.90
25482;DHT22;13395;50.752;4.268;2023-05-28T03:31:42;11.40;99.90
25482;DHT22;13395;50.752;4.268;2023-05-28T03:34:07;11.20;99.90
25482;DHT22;13395;50.752;4.268;2023-05-28T03:36:33;11.20;99.90
25482;DHT22;13395;50.752;4.268;2023-05-28T03:38:59;11.20;99.90
25482;DHT22;13395;50.752;4.268;2023-05-28T03:41:24;11.30;99.90
25482;DHT22;13395;50.752;4.268;2023-05-28T03:43:51;11.30;99.90
25482;DHT22;13395;50.752;4.268;2023-05-28T03:46:16;11.30;99.90
25482;DHT22;13395;50.752;4.268;2023-05-28T03:48:42;11.20;99.90
25482;DHT22;13395;50.752;4.268;2023-05-28T03:51:07;11.20;99.90
25482;DHT22;13395;50.752;4.268;2023-05-28T03:53:35;11.30;99.90
25482;DHT22;13395;50.752;4.268;2023-05-28T03:56:01;11.20;99.90
25482;DHT22;13395;50.752;4.268;2023-05-28T03:58:26;11.30;99.90
25482;DHT22;13395;50.752;4.268;2023-05-28T04:00:52;11.30;99.90
25482;DHT22;13395;50.752;4.268;2023-05-28T04:03:17;11.30;99.90
25482;DHT22;13395;50.752;4.268;2023-05-28T04:05:43;11.20;99.90
25482;DHT22;13395;50.752;4.268;2023-05-28T04:08:08;11.10;99.90
25482;DHT22;13395;50.752;4.268;2023-05-28T04:10:34;11.00;99.90
25482;DHT22;13395;50.752;4.268;2023-05-28T04:12:59;10.80;99.90
25482;DHT22;13395;50.752;4.268;2023-05-28T04:15:25;10.80;99.90
25482;DHT22;13395;50.752;4.268;2023-05-28T04:17:50;10.90;99.90
25482;DHT22;13395;50.752;4.268;2023-05-28T04:20:16;11.10;99.90
25482;DHT22;13395;50.752;4.268;2023-05-28T04:22:41;11.20;99.90
25482;DHT22;13395;50.752;4.268;2023-05-28T04:25:07;11.30;99.90
25482;DHT22;13395;50.752;4.268;2023-05-28T04:27:32;11.50;99.90
25482;DHT22;13395;50.752;4.268;2023-05-28T04:29:58;11.70;99.90
25482;DHT22;13395;50.752;4.268;2023-05-28T04:32:24;11.90;99.90
25482;DHT22;13395;50.752;4.268;2023-05-28T04:34:50;12.10;99.90
25482;DHT22;13395;50.752;4.268;2023-05-28T04:37:17;12.10;99.90
25482;DHT22;13395;50.752;4.268;2023-05-28T04:39:43;12.10;99.90
25482;DHT22;13395;50.752;4.268;2023-05-28T04:42:08;12.20;99.90
25482;DHT22;13395;50.752;4.268;2023-05-28T04:44:39;12.30;99.90
25482;DHT22;13395;50.752;4.268;2023-05-28T04:47:05;12.30;99.90
25482;DHT22;13395;50.752;4.268;2023-05-28T04:49:31;12.30;99.90
25482;DHT22;13395;50.752;4.268;2023-05-28T04:51:57;12.20;99.90
25482;DHT22;13395;50.752;4.268;2023-05-28T04:54:22;11.90;99.90
25482;DHT22;13395;50.752;4.268;2023-05-28T04:56:48;11.90;99.90
25482;DHT22;13395;50.752;4.268;2023-05-28T04:59:13;11.80;99.90
25482;DHT22;13395;50.752;4.268;2023-05-28T05:01:39;11.90;99.90
25482;DHT22;13395;50.752;4.268;2023-05-28T05:04:05;12.10;99.90
25482;DHT22;13395;50.752;4.268;2023-05-28T05:06:31;12.40;99.90
25482;DHT22;13395;50.752;4.268;2023-05-28T05:08:56;13.00;99.90
25482;DHT22;13395;50.752;4.268;2023-05-28T05:11:22;13.80;99.90
25482;DHT22;13395;50.752;4.268;2023-05-28T05:13:47;14.70;99.90
25482;DHT22;13395;50.752;4.268;2023-05-28T05:16:13;15.70;99.90
25482;DHT22;13395;50.752;4.268;2023-05-28T05:18:39;16.50;99.90
25482;DHT22;13395;50.752;4.268;2023-05-28T05:21:04;17.30;99.90
25482;DHT22;13395;50.752;4.268;2023-05-28T05:23:30;18.10;99.90
25482;DHT22;13395;50.752;4.268;2023-05-28T05:25:55;18.90;99.90
25482;DHT22;13395;50.752;4.268;2023-05-28T05:28:21;19.60;99.90
25482;DHT22;13395;50.752;4.268;2023-05-28T05:30:46;20.20;99.90
25482;DHT22;13395;50.752;4.268;2023-05-28T05:33:12;20.80;99.90
25482;DHT22;13395;50.752;4.268;2023-05-28T05:35:37;21.20;99.90
25482;DHT22;13395;50.752;4.268;2023-05-28T05:38:03;21.70;99.90
25482;DHT22;13395;50.752;4.268;2023-05-28T05:40:29;22.10;99.90
25482;DHT22;13395;50.752;4.268;2023-05-28T05:42:54;22.60;98.90
25482;DHT22;13395;50.752;4.268;2023-05-28T05:45:20;22.80;97.80
25482;DHT22;13395;50.752;4.268;2023-05-28T05:47:46;23.10;97.10
25482;DHT22;13395;50.752;4.268;2023-05-28T05:50:11;23.50;96.40
25482;DHT22;13395;50.752;4.268;2023-05-28T05:52:37;23.90;95.40
25482;DHT22;13395;50.752;4.268;2023-05-28T05:55:03;24.20;94.80
25482;DHT22;13395;50.752;4.268;2023-05-28T05:57:29;24.40;93.40
25482;DHT22;13395;50.752;4.268;2023-05-28T05:59:54;24.20;93.10
25482;DHT22;13395;50.752;4.268;2023-05-28T06:02:20;24.10;93.40
25482;DHT22;13395;50.752;4.268;2023-05-28T06:04:45;24.10;93.40
25482;DHT22;13395;50.752;4.268;2023-05-28T06:07:11;24.10;92.90
25482;DHT22;13395;50.752;4.268;2023-05-28T06:09:36;23.50;93.00
25482;DHT22;13395;50.752;4.268;2023-05-28T06:12:02;23.40;93.50
25482;DHT22;13395;50.752;4.268;2023-05-28T06:14:28;23.90;93.10
25482;DHT22;13395;50.752;4.268;2023-05-28T06:16:53;24.60;92.70
25482;DHT22;13395;50.752;4.268;2023-05-28T06:19:19;24.10;91.90
25482;DHT22;13395;50.752;4.268;2023-05-28T06:21:44;24.30;92.10
25482;DHT22;13395;50.752;4.268;2023-05-28T06:24:10;24.90;91.40
25482;DHT22;13395;50.752;4.268;2023-05-28T06:26:36;25.60;90.50
25482;DHT22;13395;50.752;4.268;2023-05-28T06:29:01;26.00;88.40
25482;DHT22;13395;50.752;4.268;2023-05-28T06:31:27;26.70;88.20
25482;DHT22;13395;50.752;4.268;2023-05-28T06:33:52;26.60;85.60
25482;DHT22;13395;50.752;4.268;2023-05-28T06:36:18;25.90;85.40
25482;DHT22;13395;50.752;4.268;2023-05-28T06:38:44;25.30;88.00
25482;DHT22;13395;50.752;4.268;2023-05-28T06:41:09;24.80;88.00
25482;DHT22;13395;50.752;4.268;2023-05-28T06:43:35;25.10;87.50
25482;DHT22;13395;50.752;4.268;2023-05-28T06:46:01;25.80;86.70
25482;DHT22;13395;50.752;4.268;2023-05-28T06:48:26;26.60;85.50
25482;DHT22;13395;50.752;4.268;2023-05-28T06:50:52;27.20;81.60
25482;DHT22;13395;50.752;4.268;2023-05-28T06:53:17;26.90;81.40
25482;DHT22;13395;50.752;4.268;2023-05-28T06:55:43;28.20;78.40
25482;DHT22;13395;50.752;4.268;2023-05-28T06:58:09;29.30;77.50
25482;DHT22;13395;50.752;4.268;2023-05-28T07:00:34;30.30;73.60
25482;DHT22;13395;50.752;4.268;2023-05-28T07:03:00;30.20;71.30
25482;DHT22;13395;50.752;4.268;2023-05-28T07:05:25;30.80;69.90
25482;DHT22;13395;50.752;4.268;2023-05-28T07:07:51;31.50;69.40
25482;DHT22;13395;50.752;4.268;2023-05-28T07:10:16;31.20;66.60
25482;DHT22;13395;50.752;4.268;2023-05-28T07:12:42;31.10;67.10
25482;DHT22;13395;50.752;4.268;2023-05-28T07:15:07;31.70;66.60
25482;DHT22;13395;50.752;4.268;2023-05-28T07:17:33;31.90;66.20
25482;DHT22;13395;50.752;4.268;2023-05-28T07:19:58;32.40;63.60
25482;DHT22;13395;50.752;4.268;2023-05-28T07:22:24;32.80;63.10
25482;DHT22;13395;50.752;4.268;2023-05-28T07:24:50;33.20;62.60
25482;DHT22;13395;50.752;4.268;2023-05-28T07:27:16;32.70;60.20
25482;DHT22;13395;50.752;4.268;2023-05-28T07:29:41;32.10;60.70
25482;DHT22;13395;50.752;4.268;2023-05-28T07:32:07;31.70;60.90
25482;DHT22;13395;50.752;4.268;2023-05-28T07:34:32;31.70;60.90
25482;DHT22;13395;50.752;4.268;2023-05-28T07:36:58;31.60;61.70
25482;DHT22;13395;50.752;4.268;2023-05-28T07:39:23;32.50;59.90
25482;DHT22;13395;50.752;4.268;2023-05-28T07:41:49;32.40;59.20
25482;DHT22;13395;50.752;4.268;2023-05-28T07:44:14;33.60;58.30
25482;DHT22;13395;50.752;4.268;2023-05-28T07:46:43;33.70;56.00
25482;DHT22;13395;50.752;4.268;2023-05-28T07:49:08;33.00;56.40
25482;DHT22;13395;50.752;4.268;2023-05-28T07:51:34;32.40;58.10
25482;DHT22;13395;50.752;4.268;2023-05-28T07:53:59;32.40;58.20
25482;DHT22;13395;50.752;4.268;2023-05-28T07:56:25;32.60;57.70
25482;DHT22;13395;50.752;4.268;2023-05-28T07:58:51;32.20;58.00
25482;DHT22;13395;50.752;4.268;2023-05-28T08:01:17;32.10;57.40
25482;DHT22;13395;50.752;4.268;2023-05-28T08:03:42;32.10;56.70
25482;DHT22;13395;50.752;4.268;2023-05-28T08:06:08;33.00;56.30
25482;DHT22;13395;50.752;4.268;2023-05-28T08:08:36;33.30;55.60
25482;DHT22;13395;50.752;4.268;2023-05-28T08:11:02;33.90;54.90
25482;DHT22;13395;50.752;4.268;2023-05-28T08:13:27;34.00;54.00
25482;DHT22;13395;50.752;4.268;2023-05-28T08:15:53;34.90;53.40
25482;DHT22;13395;50.752;4.268;2023-05-28T08:18:18;35.10;52.00
25482;DHT22;13395;50.752;4.268;2023-05-28T08:20:44;34.50;52.70
25482;DHT22;13395;50.752;4.268;2023-05-28T08:23:10;34.60;51.90
25482;DHT22;13395;50.752;4.268;2023-05-28T08:25:35;34.20;52.10
25482;DHT22;13395;50.752;4.268;2023-05-28T08:28:01;34.90;52.60
25482;DHT22;13395;50.752;4.268;2023-05-28T08:30:26;34.90;52.20
25482;DHT22;13395;50.752;4.268;2023-05-28T08:32:52;35.00;51.20
25482;DHT22;13395;50.752;4.268;2023-05-28T08:35:17;35.60;50.00
25482;DHT22;13395;50.752;4.268;2023-05-28T08:37:43;35.00;50.30
25482;DHT22;13395;50.752;4.268;2023-05-28T08:40:08;34.30;52.30
25482;DHT22;13395;50.752;4.268;2023-05-28T08:42:35;34.10;52.00
25482;DHT22;13395;50.752;4.268;2023-05-28T08:45:01;34.20;51.00
25482;DHT22;13395;50.752;4.268;2023-05-28T08:47:27;34.00;51.30
25482;DHT22;13395;50.752;4.268;2023-05-28T08:49:56;33.90;52.60
25482;DHT22;13395;50.752;4.268;2023-05-28T08:52:23;34.10;51.50
25482;DHT22;13395;50.752;4.268;2023-05-28T08:54:49;34.10;52.00
25482;DHT22;13395;50.752;4.268;2023-05-28T08:57:15;34.60;51.90
25482;DHT22;13395;50.752;4.268;2023-05-28T08:59:40;34.50;50.60
25482;DHT22;13395;50.752;4.268;2023-05-28T09:02:06;34.40;51.60
25482;DHT22;13395;50.752;4.268;2023-05-28T09:04:33;34.10;51.20
25482;DHT22;13395;50.752;4.268;2023-05-28T09:06:58;34.00;51.60
25482;DHT22;13395;50.752;4.268;2023-05-28T09:09:24;34.30;51.10
25482;DHT22;13395;50.752;4.268;2023-05-28T09:11:49;34.40;51.40
25482;DHT22;13395;50.752;4.268;2023-05-28T09:14:16;34.90;50.60
25482;DHT22;13395;50.752;4.268;2023-05-28T09:16:43;35.10;50.50
25482;DHT22;13395;50.752;4.268;2023-05-28T09:19:09;35.20;50.00
25482;DHT22;13395;50.752;4.268;2023-05-28T09:21:34;35.20;49.90
25482;DHT22;13395;50.752;4.268;2023-05-28T09:24:02;34.60;50.20
25482;DHT22;13395;50.752;4.268;2023-05-28T09:26:31;35.20;49.80
25482;DHT22;13395;50.752;4.268;2023-05-28T09:28:57;35.60;49.60
25482;DHT22;13395;50.752;4.268;2023-05-28T09:31:29;35.50;49.80
25482;DHT22;13395;50.752;4.268;2023-05-28T09:33:58;36.60;49.50
25482;DHT22;13395;50.752;4.268;2023-05-28T09:36:25;36.70;47.90
25482;DHT22;13395;50.752;4.268;2023-05-28T09:38:50;36.20;47.40
25482;DHT22;13395;50.752;4.268;2023-05-28T09:41:16;35.40;48.60
25482;DHT22;13395;50.752;4.268;2023-05-28T09:43:43;35.90;49.70
25482;DHT22;13395;50.752;4.268;2023-05-28T09:46:09;36.10;49.10
25482;DHT22;13395;50.752;4.268;2023-05-28T09:48:34;36.10;47.50
25482;DHT22;13395;50.752;4.268;2023-05-28T09:51:03;35.60;47.90
25482;DHT22;13395;50.752;4.268;2023-05-28T09:53:29;36.10;48.00
25482;DHT22;13395;50.752;4.268;2023-05-28T09:55:56;37.00;47.10
25482;DHT22;13395;50.752;4.268;2023-05-28T09:58:24;36.90;46.90
25482;DHT22;13395;50.752;4.268;2023-05-28T10:00:52;36.70;46.20
25482;DHT22;13395;50.752;4.268;2023-05-28T10:05:50;35.60;47.30
25482;DHT22;13395;50.752;4.268;2023-05-28T10:08:16;35.70;48.00
25482;DHT22;13395;50.752;4.268;2023-05-28T10:10:44;36.50;46.80
25482;DHT22;13395;50.752;4.268;2023-05-28T10:13:11;37.10;45.40
25482;DHT22;13395;50.752;4.268;2023-05-28T10:15:37;38.50;46.00
25482;DHT22;13395;50.752;4.268;2023-05-28T10:18:05;39.20;44.80
25482;DHT22;13395;50.752;4.268;2023-05-28T10:20:30;39.10;43.80
25482;DHT22;13395;50.752;4.268;2023-05-28T10:22:56;39.40;43.50
25482;DHT22;13395;50.752;4.268;2023-05-28T10:25:21;39.50;44.50
25482;DHT22;13395;50.752;4.268;2023-05-28T10:27:47;39.50;43.50
25482;DHT22;13395;50.752;4.268;2023-05-28T10:32:57;40.10;42.40
25482;DHT22;13395;50.752;4.268;2023-05-28T10:35:23;40.80;42.90
25482;DHT22;13395;50.752;4.268;2023-05-28T10:37:48;40.10;41.30
25482;DHT22;13395;50.752;4.268;2023-05-28T10:40:23;40.70;41.60
25482;DHT22;13395;50.752;4.268;2023-05-28T10:42:49;40.40;41.50
25482;DHT22;13395;50.752;4.268;2023-05-28T10:45:14;40.70;42.40
25482;DHT22;13395;50.752;4.268;2023-05-28T10:47:41;41.00;41.30
25482;DHT22;13395;50.752;4.268;2023-05-28T10:50:13;40.70;40.20
25482;DHT22;13395;50.752;4.268;2023-05-28T10:52:39;40.50;40.90
25482;DHT22;13395;50.752;4.268;2023-05-28T10:55:08;40.10;40.40
25482;DHT22;13395;50.752;4.268;2023-05-28T10:57:47;39.70;40.70
25482;DHT22;13395;50.752;4.268;2023-05-28T11:00:13;39.60;41.20
25482;DHT22;13395;50.752;4.268;2023-05-28T11:02:49;39.50;41.40
25482;DHT22;13395;50.752;4.268;2023-05-28T11:05:15;39.90;42.10
25482;DHT22;13395;50.752;4.268;2023-05-28T11:07:41;39.90;41.40
25482;DHT22;13395;50.752;4.268;2023-05-28T11:10:11;40.20;40.30
25482;DHT22;13395;50.752;4.268;2023-05-28T11:12:39;39.80;40.00
25482;DHT22;13395;50.752;4.268;2023-05-28T11:15:05;39.70;40.60
25482;DHT22;13395;50.752;4.268;2023-05-28T11:17:41;39.30;41.70
25482;DHT22;13395;50.752;4.268;2023-05-28T11:22:41;38.60;42.60
25482;DHT22;13395;50.752;4.268;2023-05-28T11:25:07;39.20;41.20
25482;DHT22;13395;50.752;4.268;2023-05-28T11:27:34;39.20;41.30
25482;DHT22;13395;50.752;4.268;2023-05-28T11:30:07;39.10;41.80
25482;DHT22;13395;50.752;4.268;2023-05-28T11:32:33;38.90;41.30
25482;DHT22;13395;50.752;4.268;2023-05-28T11:34:59;39.00;41.40
25482;DHT22;13395;50.752;4.268;2023-05-28T11:37:26;38.80;41.00
25482;DHT22;13395;50.752;4.268;2023-05-28T11:39:52;39.30;41.60
25482;DHT22;13395;50.752;4.268;2023-05-28T11:42:21;40.00;41.60
25482;DHT22;13395;50.752;4.268;2023-05-28T11:44:47;39.40;39.10
25482;DHT22;13395;50.752;4.268;2023-05-28T11:47:13;39.20;39.90
25482;DHT22;13395;50.752;4.268;2023-05-28T11:49:39;38.50;41.10
25482;DHT22;13395;50.752;4.268;2023-05-28T11:52:04;38.30;41.70
25482;DHT22;13395;50.752;4.268;2023-05-28T11:54:30;37.60;41.50
25482;DHT22;13395;50.752;4.268;2023-05-28T11:56:56;37.00;41.60
25482;DHT22;13395;50.752;4.268;2023-05-28T11:59:21;37.20;41.50
25482;DHT22;13395;50.752;4.268;2023-05-28T12:01:54;37.20;41.70
25482;DHT22;13395;50.752;4.268;2023-05-28T12:04:23;37.40;39.90
25482;DHT22;13395;50.752;4.268;2023-05-28T12:06:51;37.50;40.30
25482;DHT22;13395;50.752;4.268;2023-05-28T12:09:17;37.70;41.90
25482;DHT22;13395;50.752;4.268;2023-05-28T12:11:43;37.50;40.40
25482;DHT22;13395;50.752;4.268;2023-05-28T12:14:10;37.20;41.60
25482;DHT22;13395;50.752;4.268;2023-05-28T12:16:45;37.50;42.30
25482;DHT22;13395;50.752;4.268;2023-05-28T12:19:14;37.70;40.60
25482;DHT22;13395;50.752;4.268;2023-05-28T12:21:40;37.40;41.60
25482;DHT22;13395;50.752;4.268;2023-05-28T12:24:13;37.10;40.80
25482;DHT22;13395;50.752;4.268;2023-05-28T12:26:39;36.70;40.80
25482;DHT22;13395;50.752;4.268;2023-05-28T12:29:05;36.00;42.40
25482;DHT22;13395;50.752;4.268;2023-05-28T12:31:31;36.10;42.80
25482;DHT22;13395;50.752;4.268;2023-05-28T12:33:56;36.40;42.60
25482;DHT22;13395;50.752;4.268;2023-05-28T12:36:22;37.00;43.30
25482;DHT22;13395;50.752;4.268;2023-05-28T12:38:47;37.10;41.70
25482;DHT22;13395;50.752;4.268;2023-05-28T12:41:13;36.90;41.40
25482;DHT22;13395;50.752;4.268;2023-05-28T12:43:38;37.10;42.20
25482;DHT22;13395;50.752;4.268;2023-05-28T12:46:04;37.40;42.10
25482;DHT22;13395;50.752;4.268;2023-05-28T12:48:29;36.80;42.10
25482;DHT22;13395;50.752;4.268;2023-05-28T12:50:55;36.20;43.10
25482;DHT22;13395;50.752;4.268;2023-05-28T12:53:20;35.20;44.20
25482;DHT22;13395;50.752;4.268;2023-05-28T12:55:46;34.30;46.50
25482;DHT22;13395;50.752;4.268;2023-05-28T12:58:12;33.40;46.10
25482;DHT22;13395;50.752;4.268;2023-05-28T13:00:37;32.70;47.90
25482;DHT22;13395;50.752;4.268;2023-05-28T13:03:03;32.20;46.90
25482;DHT22;13395;50.752;4.268;2023-05-28T13:05:29;31.20;48.00
25482;DHT22;13395;50.752;4.268;2023-05-28T13:07:58;30.80;49.80
25482;DHT22;13395;50.752;4.268;2023-05-28T13:10:24;30.60;49.30
25482;DHT22;13395;50.752;4.268;2023-05-28T13:12:49;30.50;48.90
25482;DHT22;13395;50.752;4.268;2023-05-28T13:15:15;30.60;48.60
25482;DHT22;13395;50.752;4.268;2023-05-28T13:17:40;30.20;48.80
25482;DHT22;13395;50.752;4.268;2023-05-28T13:20:06;29.60;48.80
25482;DHT22;13395;50.752;4.268;2023-05-28T13:22:35;29.20;49.70
25482;DHT22;13395;50.752;4.268;2023-05-28T13:25:05;29.00;50.80
25482;DHT22;13395;50.752;4.268;2023-05-28T13:27:31;28.80;52.20
25482;DHT22;13395;50.752;4.268;2023-05-28T13:29:56;28.70;52.20
25482;DHT22;13395;50.752;4.268;2023-05-28T13:32:22;28.90;53.20
25482;DHT22;13395;50.752;4.268;2023-05-28T13:34:47;29.30;53.00
25482;DHT22;13395;50.752;4.268;2023-05-28T13:37:13;29.50;53.30
25482;DHT22;13395;50.752;4.268;2023-05-28T13:39:38;29.50;50.90
25482;DHT22;13395;50.752;4.268;2023-05-28T13:42:04;29.40;50.50
25482;DHT22;13395;50.752;4.268;2023-05-28T13:44:29;29.30;50.60
25482;DHT22;13395;50.752;4.268;2023-05-28T13:46:56;29.50;50.80
25482;DHT22;13395;50.752;4.268;2023-05-28T13:49:21;29.50;52.30
25482;DHT22;13395;50.752;4.268;2023-05-28T13:51:47;29.50;51.30
25482;DHT22;13395;50.752;4.268;2023-05-28T13:54:12;29.50;52.80
25482;DHT22;13395;50.752;4.268;2023-05-28T13:56:38;29.50;53.10
25482;DHT22;13395;50.752;4.268;2023-05-28T13:59:06;29.50;52.00
25482;DHT22;13395;50.752;4.268;2023-05-28T14:01:34;29.30;52.70
25482;DHT22;13395;50.752;4.268;2023-05-28T14:04:06;29.20;53.10
25482;DHT22;13395;50.752;4.268;2023-05-28T14:06:31;29.20;53.20
25482;DHT22;13395;50.752;4.268;2023-05-28T14:08:57;29.20;53.20
25482;DHT22;13395;50.752;4.268;2023-05-28T14:11:23;29.00;53.10
25482;DHT22;13395;50.752;4.268;2023-05-28T14:13:48;28.80;52.80
25482;DHT22;13395;50.752;4.268;2023-05-28T14:16:14;28.60;53.60
25482;DHT22;13395;50.752;4.268;2023-05-28T14:18:39;28.50;53.60
25482;DHT22;13395;50.752;4.268;2023-05-28T14:21:05;28.60;54.20
25482;DHT22;13395;50.752;4.268;2023-05-28T14:23:32;28.60;54.80
25482;DHT22;13395;50.752;4.268;2023-05-28T14:25:57;28.70;54.20
25482;DHT22;13395;50.752;4.268;2023-05-28T14:28:22;28.70;54.00
25482;DHT22;13395;50.752;4.268;2023-05-28T14:30:51;28.40;53.20
25482;DHT22;13395;50.752;4.268;2023-05-28T14:33:17;28.30;53.60
25482;DHT22;13395;50.752;4.268;2023-05-28T14:35:42;28.40;53.20
25482;DHT22;13395;50.752;4.268;2023-05-28T14:38:08;28.10;52.00
25482;DHT22;13395;50.752;4.268;2023-05-28T14:40:33;28.10;53.40
25482;DHT22;13395;50.752;4.268;2023-05-28T14:42:59;28.00;53.60
25482;DHT22;13395;50.752;4.268;2023-05-28T14:45:24;27.90;52.90
25482;DHT22;13395;50.752;4.268;2023-05-28T14:47:50;27.90;54.10
25482;DHT22;13395;50.752;4.268;2023-05-28T14:50:16;27.90;53.60
25482;DHT22;13395;50.752;4.268;2023-05-28T14:52:41;27.80;52.80
25482;DHT22;13395;50.752;4.268;2023-05-28T14:55:07;27.60;53.20
25482;DHT22;13395;50.752;4.268;2023-05-28T14:57:33;27.70;53.60
25482;DHT22;13395;50.752;4.268;2023-05-28T15:00:01;27.60;53.70
25482;DHT22;13395;50.752;4.268;2023-05-28T15:02:27;27.60;52.70
25482;DHT22;13395;50.752;4.268;2023-05-28T15:04:53;27.70;52.20
25482;DHT22;13395;50.752;4.268;2023-05-28T15:07:18;27.90;52.10
25482;DHT22;13395;50.752;4.268;2023-05-28T15:09:44;27.70;51.40
25482;DHT22;13395;50.752;4.268;2023-05-28T15:12:09;27.60;51.30
25482;DHT22;13395;50.752;4.268;2023-05-28T15:14:36;27.70;52.00
25482;DHT22;13395;50.752;4.268;2023-05-28T15:17:02;27.40;51.30
25482;DHT22;13395;50.752;4.268;2023-05-28T15:19:28;27.40;51.40
25482;DHT22;13395;50.752;4.268;2023-05-28T15:21:53;27.30;52.90
25482;DHT22;13395;50.752;4.268;2023-05-28T15:24:19;27.40;52.40
25482;DHT22;13395;50.752;4.268;2023-05-28T15:26:45;27.50;52.10
25482;DHT22;13395;50.752;4.268;2023-05-28T15:29:14;27.50;53.30
25482;DHT22;13395;50.752;4.268;2023-05-28T15:31:41;27.50;54.70